Time;durP1;ratioP1;P1;durP2;ratioP2;P2;SDS_P1;SDS_P2;PMS_P1;PMS_P2;Temp;Humidity;BMP_temperature;BMP_pressure;BME280_temperature;BME280_humidity;BME280_pressure;Samples;Min_cycle;Max_cycle;Signal;HPM_P1;HPM_P2
2022/03/23 00:02:13;;;;;;;20.67;14.77;;;8.30;99.90;;;;;;5029824;28;20248;-75
2022/03/23 00:04:57;;;;;;;21.90;13.43;;;8.30;99.90;;;;;;5029930;28;20247;-75
2022/03/23 00:07:41;;;;;;;23.03;14.13;;;8.20;99.90;;;;;;5035041;28;20189;-75
2022/03/23 00:10:26;;;;;;;24.03;14.90;;;8.20;99.90;;;;;;5032432;28;20254;-76
2022/03/23 00:13:10;;;;;;;21.90;14.57;;;8.10;99.90;;;;;;5032526;28;20195;-76
2022/03/23 00:15:54;;;;;;;22.83;14.20;;;8.10;99.90;;;;;;5026849;28;20250;-77
2022/03/23 00:18:39;;;;;;;28.50;15.27;;;8.00;99.90;;;;;;5028238;28;20218;-75
2022/03/23 00:21:23;;;;;;;22.37;14.37;;;8.00;99.90;;;;;;5024485;28;20238;-75
2022/03/23 00:24:07;;;;;;;25.20;14.67;;;7.90;99.90;;;;;;5027486;28;20234;-75
2022/03/23 00:26:51;;;;;;;22.37;15.37;;;7.90;99.90;;;;;;5032357;28;20206;-75
2022/03/23 00:29:35;;;;;;;22.47;13.87;;;7.80;99.90;;;;;;5031927;28;20227;-76
2022/03/23 00:32:19;;;;;;;27.53;15.10;;;7.80;99.90;;;;;;5030063;28;20682;-75
2022/03/23 00:35:04;;;;;;;26.80;14.57;;;7.80;99.90;;;;;;5024311;28;20247;-76
2022/03/23 00:37:49;;;;;;;25.43;14.40;;;7.70;99.90;;;;;;5031373;28;20662;-75
2022/03/23 00:40:34;;;;;;;22.27;14.00;;;7.70;99.90;;;;;;5028008;28;20237;-75
2022/03/23 00:43:18;;;;;;;19.57;14.53;;;7.60;99.90;;;;;;5023583;28;20211;-76
2022/03/23 00:46:02;;;;;;;25.60;14.57;;;7.60;99.90;;;;;;5026434;28;20214;-75
2022/03/23 00:48:47;;;;;;;27.13;14.67;;;7.60;99.90;;;;;;5040104;28;20190;-76
2022/03/23 00:51:31;;;;;;;23.80;14.63;;;7.50;99.90;;;;;;5028214;28;20198;-76
2022/03/23 00:54:15;;;;;;;23.00;14.50;;;7.50;99.90;;;;;;5026813;28;20208;-75
2022/03/23 00:57:06;;;;;;;22.67;14.37;;;7.50;99.90;;;;;;5023234;28;20676;-75
2022/03/23 00:59:51;;;;;;;23.63;14.33;;;7.40;99.90;;;;;;5023421;28;20269;-75
2022/03/23 01:02:35;;;;;;;23.33;14.40;;;7.40;99.90;;;;;;5025994;28;20224;-76
2022/03/23 01:05:19;;;;;;;22.57;14.67;;;7.40;99.90;;;;;;5025853;28;20222;-77
2022/03/23 01:08:03;;;;;;;21.63;14.90;;;7.30;99.90;;;;;;5021949;28;20191;-75
2022/03/23 01:10:48;;;;;;;21.77;13.53;;;7.30;99.90;;;;;;5026333;28;20261;-75
2022/03/23 01:13:32;;;;;;;20.37;14.17;;;7.30;99.90;;;;;;5021810;28;20220;-75
2022/03/23 01:16:17;;;;;;;22.97;14.73;;;7.20;99.90;;;;;;5023202;28;20226;-75
2022/03/23 01:19:01;;;;;;;29.53;13.93;;;7.20;99.90;;;;;;5027455;28;20238;-76
2022/03/23 01:21:46;;;;;;;21.20;14.30;;;7.20;99.90;;;;;;5031367;28;20290;-75
2022/03/23 01:24:30;;;;;;;21.07;13.13;;;7.20;99.90;;;;;;5027419;28;20253;-75
2022/03/23 01:27:14;;;;;;;21.53;14.10;;;7.10;99.90;;;;;;5023284;28;20206;-75
2022/03/23 01:29:58;;;;;;;20.97;13.77;;;7.10;99.90;;;;;;5024336;28;20702;-76
2022/03/23 01:32:44;;;;;;;20.03;13.50;;;7.10;99.90;;;;;;5023606;28;20195;-75
2022/03/23 01:35:28;;;;;;;22.67;13.53;;;7.00;99.90;;;;;;5039196;28;20668;-76
2022/03/23 01:38:13;;;;;;;20.77;13.33;;;6.90;99.90;;;;;;5026572;28;20190;-76
2022/03/23 01:40:57;;;;;;;21.13;13.77;;;6.90;99.90;;;;;;5023170;28;20222;-76
2022/03/23 01:43:41;;;;;;;21.37;13.00;;;6.90;99.90;;;;;;5028330;28;20244;-76
2022/03/23 01:46:26;;;;;;;20.67;12.97;;;6.80;99.90;;;;;;5023393;28;20223;-76
2022/03/23 01:49:10;;;;;;;19.67;13.43;;;6.80;99.90;;;;;;5024581;28;20243;-76
2022/03/23 01:51:54;;;;;;;18.60;13.17;;;6.70;99.90;;;;;;5024867;28;20191;-76
2022/03/23 01:54:40;;;;;;;24.10;13.60;;;6.80;99.90;;;;;;5025399;28;20223;-75
2022/03/23 01:57:25;;;;;;;23.67;14.00;;;6.70;99.90;;;;;;5022629;28;20284;-75
2022/03/23 02:00:11;;;;;;;21.37;13.87;;;6.70;99.90;;;;;;5029227;28;20301;-75
2022/03/23 02:02:55;;;;;;;23.00;14.90;;;6.60;99.90;;;;;;5031285;28;20629;-76
2022/03/23 02:05:39;;;;;;;22.43;14.30;;;6.60;99.90;;;;;;5028251;28;20184;-75
2022/03/23 02:08:23;;;;;;;24.92;17.45;;;6.60;99.90;;;;;;5029160;28;20421;-76
2022/03/23 02:11:07;;;;;;;22.23;14.90;;;6.60;99.90;;;;;;5044684;28;20241;-75
2022/03/23 02:13:53;;;;;;;29.57;14.63;;;6.50;99.90;;;;;;5028611;28;20246;-76
2022/03/23 02:16:49;;;;;;;24.87;15.50;;;6.50;99.90;;;;;;5035124;28;20223;-76
2022/03/23 02:19:35;;;;;;;22.20;14.20;;;6.50;99.90;;;;;;5028034;28;20219;-76
2022/03/23 02:22:19;;;;;;;22.67;13.80;;;6.40;99.90;;;;;;5033821;28;20272;-77
2022/03/23 02:25:06;;;;;;;21.90;17.35;;;6.40;99.90;;;;;;5030321;28;20478;-75
2022/03/23 02:27:51;;;;;;;20.10;14.97;;;6.40;99.90;;;;;;5027968;28;20605;-75
2022/03/23 02:30:36;;;;;;;23.00;14.30;;;6.30;99.90;;;;;;5025236;28;20290;-76
2022/03/23 02:33:21;;;;;;;24.17;13.90;;;6.30;99.90;;;;;;5033178;28;20197;-76
2022/03/23 02:36:05;;;;;;;24.60;14.43;;;6.30;99.90;;;;;;5029989;28;20202;-75
2022/03/23 02:38:50;;;;;;;22.30;14.20;;;6.20;99.90;;;;;;5028852;28;20239;-75
2022/03/23 02:41:35;;;;;;;21.60;14.27;;;6.20;99.90;;;;;;5024502;28;20239;-75
2022/03/23 02:44:19;;;;;;;24.17;14.33;;;6.20;99.90;;;;;;5027993;28;20223;-75
2022/03/23 02:47:05;;;;;;;24.33;13.77;;;6.20;99.90;;;;;;5031307;28;20271;-75
2022/03/23 02:49:49;;;;;;;21.43;14.60;;;6.10;99.90;;;;;;5033160;28;20311;-75
2022/03/23 02:52:34;;;;;;;21.87;13.53;;;6.00;99.90;;;;;;5030546;28;20191;-75
2022/03/23 03:01:54;;;;;;;20.77;14.37;;;5.90;99.90;;;;;;5029605;28;20223;-75
2022/03/23 03:04:39;;;;;;;23.57;13.90;;;5.90;99.90;;;;;;5026935;28;20183;-75
2022/03/23 03:07:23;;;;;;;22.07;14.50;;;5.90;99.90;;;;;;5029493;28;20230;-75
2022/03/23 03:10:07;;;;;;;25.73;17.92;;;5.90;99.90;;;;;;5027802;28;20406;-76
2022/03/23 03:12:55;;;;;;;20.37;14.73;;;5.80;99.90;;;;;;5028434;28;20192;-74
2022/03/23 03:15:40;;;;;;;23.10;13.83;;;5.80;99.90;;;;;;5030579;28;20300;-75
2022/03/23 03:18:24;;;;;;;25.45;17.33;;;5.80;99.90;;;;;;5028790;28;20401;-75
2022/03/23 03:21:10;;;;;;;23.53;14.30;;;5.80;99.90;;;;;;5031821;28;20242;-75
2022/03/23 03:23:54;;;;;;;25.83;18.10;;;5.70;99.90;;;;;;5022686;28;20417;-75
2022/03/23 03:26:38;;;;;;;19.40;14.13;;;5.70;99.90;;;;;;5031556;28;20237;-75
2022/03/23 03:29:23;;;;;;;21.90;13.97;;;5.70;99.90;;;;;;5027198;28;20219;-75
2022/03/23 03:32:08;;;;;;;23.57;13.00;;;5.70;99.90;;;;;;5035109;28;20275;-75
2022/03/23 03:34:52;;;;;;;24.37;14.17;;;5.60;99.90;;;;;;5026546;28;20202;-75
2022/03/23 03:37:36;;;;;;;21.87;13.97;;;5.60;99.90;;;;;;5025911;28;20204;-75
2022/03/23 03:40:21;;;;;;;25.08;17.08;;;5.60;99.90;;;;;;5028130;28;20402;-75
2022/03/23 03:43:05;;;;;;;23.23;17.77;;;5.60;99.90;;;;;;5025269;28;20414;-75
2022/03/23 03:45:50;;;;;;;23.90;16.92;;;5.60;99.90;;;;;;5025158;28;20412;-76
2022/03/23 03:48:35;;;;;;;19.90;13.90;;;5.60;99.90;;;;;;5033098;28;20194;-75
2022/03/23 03:51:20;;;;;;;20.50;13.13;;;5.60;99.90;;;;;;5027030;28;20178;-75
2022/03/23 03:54:05;;;;;;;20.33;14.30;;;5.60;99.90;;;;;;5025641;28;20256;-76
2022/03/23 03:56:49;;;;;;;18.03;13.03;;;5.60;99.90;;;;;;5029767;28;20249;-75
2022/03/23 03:59:34;;;;;;;20.80;13.10;;;5.50;99.90;;;;;;5024822;28;20279;-75
2022/03/23 04:02:19;;;;;;;21.20;13.13;;;5.50;99.90;;;;;;5022018;28;20183;-75
2022/03/23 04:05:04;;;;;;;19.17;13.40;;;5.50;99.90;;;;;;5032209;28;20194;-77
2022/03/23 04:07:49;;;;;;;22.77;12.90;;;5.40;99.90;;;;;;5031565;28;20704;-75
2022/03/23 04:10:33;;;;;;;24.13;13.40;;;5.40;99.90;;;;;;5027179;28;20208;-75
2022/03/23 04:13:17;;;;;;;21.47;12.97;;;5.30;99.90;;;;;;5028280;28;20211;-75
2022/03/23 04:16:02;;;;;;;20.47;13.47;;;5.30;99.90;;;;;;5031003;28;20195;-76
2022/03/23 04:18:47;;;;;;;19.37;13.67;;;5.30;99.90;;;;;;5030010;28;20587;-75
2022/03/23 04:21:34;;;;;;;22.13;13.17;;;5.20;99.90;;;;;;5030885;28;20221;-75
2022/03/23 04:24:19;;;;;;;21.57;12.53;;;5.20;99.90;;;;;;5030297;28;20298;-76
2022/03/23 04:27:03;;;;;;;19.95;16.33;;;5.20;99.90;;;;;;5022807;28;20427;-75
2022/03/23 04:29:48;;;;;;;19.03;13.93;;;5.20;99.90;;;;;;5022274;28;20714;-75
2022/03/23 04:32:32;;;;;;;19.27;12.97;;;5.20;99.90;;;;;;5030361;28;20195;-76
2022/03/23 04:35:17;;;;;;;19.07;13.60;;;5.10;99.90;;;;;;5026475;28;20274;-75
2022/03/23 04:38:01;;;;;;;21.90;14.43;;;5.10;99.90;;;;;;5024141;28;20205;-76
2022/03/23 04:40:46;;;;;;;19.63;12.90;;;5.10;99.90;;;;;;5031668;28;20210;-76
2022/03/23 04:43:31;;;;;;;22.20;16.33;;;5.00;99.90;;;;;;5015397;28;20442;-76
2022/03/23 04:46:15;;;;;;;24.23;14.00;;;5.00;99.90;;;;;;5030848;28;20235;-75
2022/03/23 04:48:59;;;;;;;25.10;17.45;;;5.00;99.90;;;;;;5043370;28;20395;-75
2022/03/23 04:51:43;;;;;;;20.40;14.03;;;5.00;99.90;;;;;;5044758;28;20207;-76
2022/03/23 04:54:28;;;;;;;25.52;17.02;;;5.00;99.90;;;;;;5043425;28;20418;-75
2022/03/23 04:57:12;;;;;;;21.93;14.20;;;5.00;99.90;;;;;;5030246;28;20187;-76
2022/03/23 04:59:58;;;;;;;22.33;17.13;;;5.00;99.90;;;;;;5028867;28;20457;-76
2022/03/23 05:02:46;;;;;;;24.83;14.47;;;5.00;99.90;;;;;;5031403;28;20219;-77
2022/03/23 05:05:30;;;;;;;23.23;16.97;;;4.90;99.90;;;;;;5009316;28;20464;-76
2022/03/23 05:08:22;;;;;;;23.17;17.58;;;5.00;99.90;;;;;;5024334;28;20407;-76
2022/03/23 05:11:07;;;;;;;22.00;14.13;;;5.00;99.90;;;;;;5029254;28;20373;-75
2022/03/23 05:13:51;;;;;;;20.80;14.30;;;4.90;99.90;;;;;;5028715;28;20242;-75
2022/03/23 05:16:35;;;;;;;19.07;13.00;;;4.90;99.90;;;;;;5024215;28;20605;-76
2022/03/23 05:19:20;;;;;;;18.17;12.70;;;4.90;99.90;;;;;;5042862;28;20226;-75
2022/03/23 05:22:04;;;;;;;21.37;14.37;;;4.90;99.90;;;;;;5033311;28;20252;-76
2022/03/23 05:24:48;;;;;;;20.07;13.93;;;4.80;99.90;;;;;;5022619;28;20248;-75
2022/03/23 05:27:38;;;;;;;21.00;13.47;;;4.80;99.90;;;;;;5026018;28;20297;-75
2022/03/23 05:30:23;;;;;;;21.60;13.13;;;4.70;99.90;;;;;;5044201;28;20740;-76
2022/03/23 05:33:07;;;;;;;20.10;13.33;;;4.70;99.90;;;;;;5015458;28;20202;-76
2022/03/23 05:35:51;;;;;;;24.17;14.27;;;4.60;99.90;;;;;;5043050;28;20195;-74
2022/03/23 05:38:36;;;;;;;23.07;14.37;;;4.60;99.90;;;;;;5043756;28;20182;-76
2022/03/23 05:41:20;;;;;;;19.57;13.83;;;4.60;99.90;;;;;;5041148;28;20206;-76
2022/03/23 05:44:05;;;;;;;23.20;14.00;;;4.60;99.90;;;;;;5027623;28;20566;-75
2022/03/23 05:46:49;;;;;;;22.70;13.30;;;4.60;99.90;;;;;;5034266;28;20201;-75
2022/03/23 05:49:34;;;;;;;21.57;13.03;;;4.60;99.90;;;;;;5030135;28;20201;-75
2022/03/23 05:52:18;;;;;;;23.60;13.03;;;4.60;99.90;;;;;;5013331;28;20237;-75
2022/03/23 05:55:03;;;;;;;25.90;13.97;;;4.50;99.90;;;;;;5026971;28;20191;-75
2022/03/23 05:57:48;;;;;;;20.83;13.93;;;4.50;99.90;;;;;;5022774;28;20179;-75
2022/03/23 06:00:32;;;;;;;20.40;12.60;;;4.50;99.90;;;;;;5031624;28;20244;-75
2022/03/23 06:03:16;;;;;;;19.80;13.90;;;4.50;99.90;;;;;;5041270;28;20610;-75
2022/03/23 06:06:00;;;;;;;25.47;13.97;;;4.50;99.90;;;;;;5030294;28;20186;-75
2022/03/23 06:08:44;;;;;;;24.97;13.67;;;4.50;99.90;;;;;;5030031;28;20175;-75
2022/03/23 06:11:28;;;;;;;26.77;13.87;;;4.50;99.90;;;;;;5028248;28;20614;-75
2022/03/23 06:14:13;;;;;;;22.47;13.90;;;4.50;99.90;;;;;;5030074;28;20365;-75
2022/03/23 06:16:57;;;;;;;20.20;12.70;;;4.50;99.90;;;;;;5026988;28;20206;-76
2022/03/23 06:19:41;;;;;;;23.60;13.50;;;4.50;99.90;;;;;;5025101;28;20229;-75
2022/03/23 06:22:25;;;;;;;20.77;12.73;;;4.60;99.90;;;;;;5030458;28;20230;-75
2022/03/23 06:25:10;;;;;;;16.83;12.03;;;4.60;99.90;;;;;;5028539;28;20195;-75
2022/03/23 06:27:54;;;;;;;19.03;13.37;;;4.60;99.90;;;;;;5029078;28;20287;-76
2022/03/23 06:30:38;;;;;;;23.17;12.87;;;4.60;99.90;;;;;;5029262;28;20218;-75
2022/03/23 06:33:22;;;;;;;23.10;16.60;;;4.60;99.90;;;;;;5042698;28;20494;-75
2022/03/23 06:36:06;;;;;;;20.53;14.00;;;4.70;99.90;;;;;;5038443;28;20253;-75
2022/03/23 06:38:51;;;;;;;19.97;12.63;;;4.70;99.90;;;;;;5027480;28;20683;-75
2022/03/23 06:41:35;;;;;;;21.85;15.77;;;4.70;99.90;;;;;;5030200;28;20533;-75
2022/03/23 06:44:19;;;;;;;18.13;12.60;;;4.80;99.90;;;;;;5031180;28;20251;-76
2022/03/23 06:47:04;;;;;;;22.00;15.77;;;4.90;99.90;;;;;;5038572;28;20397;-75
2022/03/23 06:49:49;;;;;;;16.63;13.10;;;5.10;99.90;;;;;;5034945;28;20230;-76
2022/03/23 06:52:33;;;;;;;20.80;13.23;;;5.10;99.90;;;;;;5032267;28;20206;-76
2022/03/23 06:55:17;;;;;;;21.63;12.90;;;5.20;99.90;;;;;;5026265;28;20213;-76
2022/03/23 06:58:01;;;;;;;17.30;11.87;;;5.20;99.90;;;;;;5033376;28;20203;-76
2022/03/23 07:00:45;;;;;;;23.23;13.00;;;5.30;99.90;;;;;;5043397;28;20214;-76
2022/03/23 07:03:29;;;;;;;21.87;12.53;;;5.40;99.90;;;;;;5032078;28;20234;-75
2022/03/23 07:06:15;;;;;;;19.83;12.37;;;5.50;99.90;;;;;;5045786;28;20291;-75
2022/03/23 07:12:05;;;;;;;17.50;12.10;;;5.70;99.90;;;;;;5033013;28;20190;-76
2022/03/23 07:14:50;;;;;;;17.60;11.33;;;5.80;99.90;;;;;;5033388;28;20234;-76
2022/03/23 07:17:35;;;;;;;17.87;12.13;;;5.90;99.90;;;;;;5031721;28;20198;-75
2022/03/23 07:20:19;;;;;;;17.53;12.87;;;5.90;99.90;;;;;;5019738;28;20216;-76
2022/03/23 07:23:03;;;;;;;17.80;11.27;;;6.00;99.90;;;;;;5030635;28;20757;-76
2022/03/23 07:25:47;;;;;;;19.97;11.97;;;6.00;99.90;;;;;;5032658;28;20713;-76
2022/03/23 07:28:32;;;;;;;20.40;15.00;;;6.10;99.90;;;;;;5031367;28;20402;-75
2022/03/23 07:31:16;;;;;;;18.98;15.15;;;6.30;99.90;;;;;;5030781;28;20401;-76
2022/03/23 07:34:02;;;;;;;18.87;12.97;;;6.50;99.90;;;;;;5034057;28;20234;-76
2022/03/23 07:36:47;;;;;;;19.83;12.40;;;6.50;99.90;;;;;;5028315;28;20195;-76
2022/03/23 07:39:32;;;;;;;19.10;12.40;;;6.60;99.90;;;;;;5035658;28;20223;-76
2022/03/23 07:42:16;;;;;;;18.97;12.77;;;6.70;99.90;;;;;;5030586;28;20219;-73
2022/03/23 07:45:00;;;;;;;21.00;15.18;;;6.80;99.90;;;;;;5027686;28;20393;-76
2022/03/23 07:47:45;;;;;;;20.70;13.43;;;6.80;99.90;;;;;;5027990;28;20516;-75
2022/03/23 07:50:29;;;;;;;19.77;12.23;;;6.90;99.90;;;;;;5024601;28;20215;-76
2022/03/23 07:53:14;;;;;;;18.17;11.90;;;6.90;99.90;;;;;;5031255;28;20207;-76
2022/03/23 07:55:58;;;;;;;20.13;12.87;;;7.00;99.90;;;;;;5025806;28;20578;-76
2022/03/23 07:58:42;;;;;;;18.33;12.73;;;7.20;99.90;;;;;;5031182;28;20202;-76
2022/03/23 08:01:27;;;;;;;17.87;12.27;;;7.30;99.90;;;;;;5031202;28;20199;-75
2022/03/23 08:04:11;;;;;;;17.93;12.20;;;7.40;99.90;;;;;;5021127;28;20231;-76
2022/03/23 08:06:55;;;;;;;18.07;12.53;;;7.50;99.90;;;;;;5030910;28;20258;-76
2022/03/23 08:09:40;;;;;;;17.20;12.37;;;7.60;99.90;;;;;;5029268;28;20223;-76
2022/03/23 08:12:25;;;;;;;19.38;14.98;;;7.70;99.90;;;;;;5027663;28;20474;-76
2022/03/23 08:15:09;;;;;;;19.43;12.40;;;7.80;99.90;;;;;;5030101;28;20975;-76
2022/03/23 08:17:54;;;;;;;21.87;12.93;;;8.00;99.90;;;;;;5028716;28;20182;-76
2022/03/23 08:20:38;;;;;;;21.27;12.40;;;8.20;99.90;;;;;;5030725;28;20218;-74
2022/03/23 08:23:25;;;;;;;17.67;12.77;;;8.30;99.90;;;;;;5031578;28;20217;-76
2022/03/23 08:26:13;;;;;;;19.43;13.07;;;8.40;99.90;;;;;;5026591;28;20183;-73
2022/03/23 08:28:57;;;;;;;19.67;12.90;;;8.50;99.90;;;;;;5029897;28;20211;-75
2022/03/23 08:31:41;;;;;;;16.67;12.53;;;8.60;99.90;;;;;;5025576;28;20270;-76
2022/03/23 08:34:26;;;;;;;16.30;12.23;;;8.60;99.90;;;;;;5030080;28;20198;-76
2022/03/23 08:37:10;;;;;;;15.50;11.53;;;8.70;99.90;;;;;;5031235;28;20246;-76
2022/03/23 08:39:54;;;;;;;19.10;11.47;;;8.80;99.90;;;;;;5041253;28;20254;-76
2022/03/23 08:42:39;;;;;;;17.80;11.87;;;8.80;99.90;;;;;;5032746;28;20195;-76
2022/03/23 08:45:23;;;;;;;18.03;12.47;;;9.00;99.90;;;;;;5028902;28;20210;-74
2022/03/23 08:48:11;;;;;;;21.87;13.77;;;9.10;99.90;;;;;;5030326;28;20613;-74
2022/03/23 08:50:55;;;;;;;18.47;13.47;;;9.20;99.90;;;;;;5032705;28;20238;-77
2022/03/23 08:53:42;;;;;;;17.17;12.53;;;9.20;99.90;;;;;;5037838;28;20234;-75
2022/03/23 08:56:26;;;;;;;17.73;11.83;;;9.40;99.90;;;;;;5037211;28;20179;-74
2022/03/23 08:59:10;;;;;;;19.03;11.77;;;9.50;99.90;;;;;;5029624;28;20237;-74
2022/03/23 09:01:54;;;;;;;20.63;14.30;;;9.70;99.90;;;;;;5028694;28;20402;-76
2022/03/23 09:04:39;;;;;;;19.77;14.82;;;9.70;99.90;;;;;;5023196;28;20434;-76
2022/03/23 09:07:23;;;;;;;17.33;13.37;;;9.90;99.90;;;;;;5024894;28;20235;-74
2022/03/23 09:10:08;;;;;;;20.27;12.40;;;10.10;99.90;;;;;;5017338;28;20222;-76
2022/03/23 09:12:52;;;;;;;16.27;12.37;;;10.10;99.90;;;;;;5029336;28;20199;-76
2022/03/23 09:15:36;;;;;;;22.77;13.10;;;10.10;99.90;;;;;;5029203;28;20225;-76
2022/03/23 09:18:21;;;;;;;16.43;12.10;;;10.30;99.90;;;;;;5028947;28;20238;-76
2022/03/23 09:21:05;;;;;;;21.30;12.43;;;10.40;99.90;;;;;;5030587;28;20211;-76
2022/03/23 09:23:50;;;;;;;18.50;12.03;;;10.40;99.90;;;;;;5029612;28;20215;-76
2022/03/23 09:26:34;;;;;;;20.20;12.57;;;10.50;99.90;;;;;;5027120;28;20175;-76
2022/03/23 09:29:18;;;;;;;19.42;14.38;;;10.60;99.90;;;;;;5020492;28;20417;-76
2022/03/23 09:32:09;;;;;;;16.97;13.60;;;10.70;99.90;;;;;;5030477;28;20259;-76
2022/03/23 09:34:53;;;;;;;17.73;11.40;;;10.80;99.90;;;;;;5030445;28;20172;-76
2022/03/23 09:37:50;;;;;;;14.83;11.00;;;10.80;99.90;;;;;;5029930;28;20195;-76
2022/03/23 09:40:34;;;;;;;20.97;11.23;;;10.90;99.90;;;;;;5026031;28;20212;-76
2022/03/23 09:43:24;;;;;;;13.97;11.03;;;11.10;99.90;;;;;;5036130;28;20215;-76
2022/03/23 09:46:08;;;;;;;18.40;11.83;;;11.20;99.90;;;;;;5028824;28;20209;-77
2022/03/23 09:48:53;;;;;;;17.20;10.93;;;11.40;99.90;;;;;;5030180;28;20211;-76
2022/03/23 09:51:39;;;;;;;15.13;10.87;;;11.40;99.90;;;;;;5030567;28;20186;-76
2022/03/23 09:54:23;;;;;;;18.60;11.60;;;11.50;99.90;;;;;;5044331;28;20186;-76
2022/03/23 09:57:08;;;;;;;20.70;10.93;;;11.50;99.90;;;;;;5028767;28;20658;-76
2022/03/23 09:59:52;;;;;;;14.67;11.03;;;11.60;99.90;;;;;;5030098;28;20238;-76
2022/03/23 10:02:39;;;;;;;13.77;10.00;;;11.80;99.90;;;;;;5021534;28;20218;-76
2022/03/23 10:05:45;;;;;;;14.83;10.97;;;11.80;99.90;;;;;;5031999;28;20172;-76
2022/03/23 10:08:54;;;;;;;14.03;10.40;;;11.80;99.90;;;;;;5030385;28;20191;-77
2022/03/23 10:12:15;;;;;;;14.97;10.13;;;12.00;99.90;;;;;;5023856;28;20189;-76
2022/03/23 10:15:37;;;;;;;14.37;11.03;;;12.10;99.90;;;;;;5029913;28;20176;-75
2022/03/23 10:18:51;;;;;;;15.83;10.37;;;12.30;99.90;;;;;;5023520;28;20203;-75
2022/03/23 10:21:37;;;;;;;14.20;10.30;;;12.50;99.90;;;;;;5026131;28;20294;-76
2022/03/23 10:24:22;;;;;;;13.97;10.33;;;12.50;99.90;;;;;;5031970;28;20219;-75
2022/03/23 10:27:08;;;;;;;12.47;10.47;;;12.50;99.90;;;;;;5032518;28;20249;-75
2022/03/23 10:29:52;;;;;;;13.97;10.43;;;12.70;99.90;;;;;;5032369;28;20207;-75
2022/03/23 10:32:38;;;;;;;13.40;10.27;;;12.80;99.90;;;;;;5032453;28;20222;-75
2022/03/23 10:35:22;;;;;;;12.90;10.00;;;12.90;99.90;;;;;;5033501;28;20226;-75
2022/03/23 10:38:25;;;;;;;13.73;10.67;;;13.00;99.90;;;;;;5032295;28;20650;-75
2022/03/23 10:41:23;;;;;;;13.40;9.00;;;13.10;99.90;;;;;;5031835;28;20230;-76
2022/03/23 10:44:17;;;;;;;13.60;9.43;;;13.10;99.90;;;;;;5033424;28;20227;-75
2022/03/23 10:47:02;;;;;;;12.87;10.20;;;13.20;99.90;;;;;;5032507;28;20199;-75
2022/03/23 10:49:46;;;;;;;13.93;9.73;;;13.30;99.90;;;;;;5032186;28;20242;-75
2022/03/23 10:52:32;;;;;;;13.57;10.03;;;13.40;99.90;;;;;;5033242;28;20238;-75
2022/03/23 10:55:16;;;;;;;13.67;9.20;;;13.50;99.90;;;;;;5032447;28;20191;-75
2022/03/23 10:58:01;;;;;;;13.43;10.47;;;13.50;99.90;;;;;;5036056;28;20188;-75
2022/03/23 11:00:45;;;;;;;13.40;8.97;;;13.60;99.90;;;;;;5027223;28;20283;-75
2022/03/23 11:03:38;;;;;;;11.47;9.57;;;13.60;99.90;;;;;;5035393;28;20226;-75
2022/03/23 11:06:27;;;;;;;12.83;9.73;;;13.70;99.90;;;;;;5022450;28;20219;-76
2022/03/23 11:15:46;;;;;;;14.23;9.37;;;13.70;99.90;;;;;;5029787;28;20211;-75
2022/03/23 11:18:25;;;;;;;12.43;10.30;;;14.00;99.90;;;;;;5031105;28;20187;-76
2022/03/23 11:21:10;;;;;;;11.93;10.20;;;14.00;99.90;;;;;;5025478;28;20676;-75
2022/03/23 11:23:54;;;;;;;13.40;9.97;;;14.00;99.90;;;;;;5023351;28;20253;-75
2022/03/23 11:26:38;;;;;;;13.30;9.47;;;14.10;99.90;;;;;;5030985;28;20186;-76
2022/03/23 11:29:22;;;;;;;13.97;9.53;;;14.10;99.90;;;;;;5031450;28;20383;-75
2022/03/23 11:32:20;;;;;;;12.30;10.10;;;14.10;99.90;;;;;;5030020;28;20199;-76
2022/03/23 11:35:08;;;;;;;13.03;9.83;;;14.20;99.90;;;;;;5029526;28;20241;-75
2022/03/23 11:37:54;;;;;;;14.70;11.67;;;14.20;99.90;;;;;;5023956;28;20422;-75
2022/03/23 11:40:44;;;;;;;13.47;11.10;;;14.30;99.90;;;;;;5020917;28;20435;-75
2022/03/23 11:43:30;;;;;;;12.67;10.67;;;14.40;99.90;;;;;;5025977;28;20318;-75
2022/03/23 11:46:22;;;;;;;13.70;10.03;;;14.40;99.90;;;;;;5020248;28;20207;-74
2022/03/23 11:49:30;;;;;;;12.77;9.63;;;14.50;99.90;;;;;;5028073;28;20230;-74
2022/03/23 11:52:36;;;;;;;13.87;10.20;;;14.60;99.90;;;;;;5029329;28;20231;-75
2022/03/23 11:55:37;;;;;;;11.70;9.93;;;14.60;99.90;;;;;;5034012;28;20195;-74
2022/03/23 11:58:34;;;;;;;16.23;10.73;;;14.70;99.90;;;;;;5026288;28;20243;-74
2022/03/23 12:01:19;;;;;;;12.20;10.33;;;14.70;99.90;;;;;;5022404;28;20299;-75
2022/03/23 12:04:04;;;;;;;13.43;12.00;;;14.70;99.90;;;;;;5028316;28;20437;-74
2022/03/23 12:07:08;;;;;;;13.47;10.83;;;14.70;99.90;;;;;;5029152;28;20451;-75
2022/03/23 12:09:52;;;;;;;12.77;10.07;;;14.70;99.90;;;;;;5030621;28;20210;-74
2022/03/23 12:12:41;;;;;;;16.43;10.80;;;14.80;99.90;;;;;;5030889;28;20192;-74
2022/03/23 12:15:27;;;;;;;12.70;9.87;;;14.80;99.90;;;;;;5027138;28;20198;-74
2022/03/23 12:18:13;;;;;;;12.37;10.47;;;14.80;99.90;;;;;;5030678;28;20187;-74
2022/03/23 12:20:57;;;;;;;12.83;10.50;;;14.80;99.90;;;;;;5031657;28;20230;-75
2022/03/23 12:23:51;;;;;;;12.00;10.37;;;14.90;99.90;;;;;;5031168;28;20214;-74
2022/03/23 12:26:39;;;;;;;12.47;10.30;;;14.90;99.90;;;;;;5028723;28;20242;-74
2022/03/23 12:29:29;;;;;;;11.90;10.50;;;14.90;99.90;;;;;;5027552;28;20234;-74
2022/03/23 12:32:14;;;;;;;13.40;10.93;;;14.90;99.90;;;;;;5028072;28;20223;-74
2022/03/23 12:34:58;;;;;;;14.93;10.87;;;14.90;99.90;;;;;;5041903;28;20226;-74
2022/03/23 12:37:43;;;;;;;15.07;10.70;;;14.90;99.90;;;;;;5028024;28;20675;-75
2022/03/23 12:40:38;;;;;;;13.17;11.23;;;15.00;99.90;;;;;;5029563;28;20223;-74
2022/03/23 12:43:42;;;;;;;16.97;11.53;;;15.10;99.90;;;;;;5036621;28;20231;-74
2022/03/23 12:46:26;;;;;;;12.23;10.93;;;15.10;99.90;;;;;;5027019;28;20602;-74
2022/03/23 12:58:30;;;;;;;13.73;11.33;;;15.10;99.90;;;;;;5018230;28;20641;-74
2022/03/23 13:01:17;;;;;;;22.43;12.13;;;15.30;99.90;;;;;;5030188;28;20663;-74
2022/03/23 13:04:02;;;;;;;12.83;10.50;;;15.20;99.90;;;;;;5031029;28;20202;-74
2022/03/23 13:06:46;;;;;;;12.60;11.07;;;15.30;99.90;;;;;;5031736;28;20187;-75
2022/03/23 13:09:30;;;;;;;17.07;11.60;;;15.20;99.90;;;;;;5029735;28;20239;-74
2022/03/23 13:12:22;;;;;;;11.87;10.67;;;15.30;99.90;;;;;;5021838;28;20191;-75
2022/03/23 13:15:18;;;;;;;13.97;11.47;;;15.20;99.90;;;;;;5029507;28;20199;-74
2022/03/23 13:18:03;;;;;;;15.97;11.90;;;15.20;99.90;;;;;;5030281;28;20662;-75
2022/03/23 13:20:51;;;;;;;15.20;11.13;;;15.20;99.90;;;;;;5029451;28;20631;-75
2022/03/23 13:23:35;;;;;;;16.77;12.03;;;15.20;99.90;;;;;;5029884;28;20199;-75
2022/03/23 13:26:22;;;;;;;15.23;11.67;;;15.30;99.90;;;;;;5033013;28;20287;-74
2022/03/23 13:29:09;;;;;;;14.97;12.40;;;15.40;99.90;;;;;;5029989;28;20282;-75
2022/03/23 13:31:54;;;;;;;13.77;11.63;;;15.40;99.90;;;;;;5029940;28;20211;-75
2022/03/23 13:34:38;;;;;;;16.00;11.70;;;15.40;99.90;;;;;;5030942;28;20219;-75
2022/03/23 13:37:22;;;;;;;14.70;11.73;;;15.40;99.90;;;;;;5029726;28;20567;-75
2022/03/23 13:40:09;;;;;;;13.83;11.90;;;15.40;99.90;;;;;;5035252;28;20208;-76
2022/03/23 13:46:04;;;;;;;15.33;12.33;;;15.40;99.90;;;;;;5031212;28;20779;-76
2022/03/23 13:48:59;;;;;;;16.23;11.27;;;15.50;99.90;;;;;;5028880;28;20223;-76
2022/03/23 13:51:45;;;;;;;14.33;11.83;;;15.50;99.90;;;;;;5038397;28;20218;-76
2022/03/23 13:54:30;;;;;;;15.37;10.93;;;15.50;99.90;;;;;;5024420;28;20221;-76
2022/03/23 13:57:14;;;;;;;13.23;11.83;;;15.50;99.90;;;;;;5033276;28;20612;-76
2022/03/23 13:59:59;;;;;;;13.27;11.13;;;15.70;99.90;;;;;;5048347;28;20218;-76
2022/03/23 14:02:47;;;;;;;15.23;12.27;;;15.70;99.60;;;;;;5033867;28;20203;-76
2022/03/23 14:05:32;;;;;;;13.63;11.53;;;15.80;99.50;;;;;;5026435;28;20191;-76
2022/03/23 14:08:17;;;;;;;16.50;12.20;;;15.90;99.30;;;;;;5032691;28;20234;-76
2022/03/23 14:11:06;;;;;;;12.43;11.13;;;15.80;99.40;;;;;;5029161;28;20207;-76
2022/03/23 14:13:51;;;;;;;15.77;11.80;;;15.90;99.90;;;;;;5029546;28;20223;-75
2022/03/23 14:16:36;;;;;;;14.77;12.53;;;15.80;99.60;;;;;;5033427;28;20356;-76
2022/03/23 14:19:20;;;;;;;16.33;11.80;;;15.90;99.90;;;;;;5033086;28;20215;-76
2022/03/23 14:22:08;;;;;;;12.40;11.10;;;15.90;99.60;;;;;;5031920;28;20211;-76
2022/03/23 14:24:54;;;;;;;14.10;11.60;;;15.90;99.10;;;;;;5029729;28;20258;-76
2022/03/23 14:27:42;;;;;;;16.00;12.17;;;16.00;99.10;;;;;;5028213;28;20183;-76
2022/03/23 14:30:30;;;;;;;15.30;11.90;;;16.00;98.60;;;;;;5041658;28;20580;-76
2022/03/23 14:33:21;;;;;;;14.43;11.97;;;15.90;98.70;;;;;;5021479;28;20247;-76
2022/03/23 14:36:21;;;;;;;15.63;11.17;;;15.90;99.10;;;;;;5028016;28;20268;-76
2022/03/23 14:39:21;;;;;;;17.73;12.27;;;15.80;99.20;;;;;;5032847;28;20195;-76